Terminal Aerodrome Forecast
Issued by NWS Rapid City, SD

Home | Current Version | Previous Version | Text Only | Print | Product List | Glossary Off
Versions: 1 2 3 4 5 6 7 8 9 10 11 12 13 14 15

000
FTUS43 KUNR 301720
TAFRAP
TAF
KRAP 301720Z 3018/0118 VRB06KT P6SM BKN100
     FM010200 27007KT P6SM SCT100 BKN250
     FM011200 34016KT P6SM SCT250=

USA.gov is the U.S. government's official web portal to all federal, state and local government web resources and services.